createdAt,value
2018-06-22T00:01:34.106Z,55.03
2018-06-22T00:04:01.624Z,57.92
2018-06-22T00:06:29.080Z,57.10
2018-06-22T00:08:56.765Z,61.08
2018-06-22T00:11:24.267Z,53.70
2018-06-22T00:13:51.785Z,56.25
2018-06-22T00:16:19.246Z,52.17
2018-06-22T00:18:46.701Z,55.95
2018-06-22T00:21:14.172Z,56.70
2018-06-22T00:23:41.606Z,58.17
2018-06-22T00:26:09.068Z,56.30
2018-06-22T00:28:36.546Z,58.22
2018-06-22T00:31:04.004Z,59.70
2018-06-22T00:33:31.513Z,60.45
2018-06-22T00:35:58.955Z,60.70
2018-06-22T00:38:26.458Z,60.35
2018-06-22T00:40:54.485Z,57.88
2018-06-22T00:43:21.944Z,57.35
2018-06-22T00:45:49.406Z,54.08
2018-06-22T00:48:16.842Z,58.67
2018-06-22T00:50:44.298Z,53.13
2018-06-22T00:53:11.792Z,53.50
2018-06-22T00:55:39.880Z,53.17
2018-06-22T00:58:07.323Z,57.08
2018-06-22T01:00:34.736Z,53.78
2018-06-22T01:03:02.142Z,53.00
2018-06-22T01:05:29.563Z,55.22
2018-06-22T01:07:56.991Z,58.33
2018-06-22T01:10:24.389Z,53.63
2018-06-22T01:12:51.864Z,53.72
2018-06-22T01:15:19.379Z,60.70
2018-06-22T01:17:46.836Z,57.85
2018-06-22T01:20:14.230Z,53.67
2018-06-22T01:22:42.066Z,55.45
2018-06-22T01:25:09.503Z,48.45
2018-06-22T01:27:37.124Z,50.40
2018-06-22T01:30:04.556Z,56.95
2018-06-22T01:32:32.013Z,57.20
2018-06-22T01:34:59.471Z,57.58
2018-06-22T01:37:26.963Z,60.47
2018-06-22T01:42:28.277Z,58.87
2018-06-22T01:44:55.678Z,57.58
2018-06-22T01:47:23.086Z,58.85
2018-06-22T01:49:50.543Z,56.30
2018-06-22T01:52:18.066Z,54.40
2018-06-22T01:54:45.556Z,60.90
2018-06-22T01:57:13.072Z,57.25
2018-06-22T01:59:40.527Z,57.47
2018-06-22T02:02:08.038Z,56.47
2018-06-22T02:04:35.533Z,55.50
2018-06-22T02:07:02.996Z,52.90
2018-06-22T02:09:30.413Z,50.85
2018-06-22T02:11:57.896Z,50.50
2018-06-22T02:14:25.341Z,47.70
2018-06-22T02:16:52.804Z,50.55
2018-06-22T02:19:20.243Z,52.38
2018-06-22T02:21:47.741Z,56.70
2018-06-22T02:24:15.155Z,50.55
2018-06-22T02:26:42.610Z,54.60
2018-06-22T02:29:10.161Z,53.33
2018-06-22T02:31:37.627Z,53.45
2018-06-22T02:34:05.081Z,54.67
2018-06-22T02:36:32.574Z,52.85
2018-06-22T02:39:00.013Z,53.45
2018-06-22T02:41:27.434Z,52.75
2018-06-22T02:43:54.872Z,53.80
2018-06-22T02:46:22.323Z,53.30
2018-06-22T02:48:50.147Z,55.85
2018-06-22T02:51:17.640Z,57.60
2018-06-22T02:53:45.075Z,55.63
2018-06-22T02:56:12.592Z,56.17
2018-06-22T02:58:40.113Z,55.70
2018-06-22T03:01:07.564Z,52.40
2018-06-22T03:03:35.017Z,51.45
2018-06-22T03:06:02.538Z,55.38
2018-06-22T03:08:30.091Z,48.40
2018-06-22T03:10:57.573Z,52.78
2018-06-22T03:13:24.991Z,49.00
2018-06-22T03:15:52.436Z,49.10
2018-06-22T03:18:19.867Z,52.00
2018-06-22T03:20:47.296Z,51.55
2018-06-22T03:23:14.763Z,48.95
2018-06-22T03:25:42.168Z,51.97
2018-06-22T03:28:09.668Z,52.50
2018-06-22T03:30:37.088Z,56.53
2018-06-22T03:33:04.538Z,47.78
2018-06-22T03:35:31.942Z,50.60
2018-06-22T03:37:59.423Z,49.75
2018-06-22T03:40:26.889Z,43.83
2018-06-22T03:42:54.383Z,46.60
2018-06-22T03:45:21.818Z,49.25
2018-06-22T03:47:49.294Z,46.20
2018-06-22T03:50:16.755Z,48.75
2018-06-22T03:52:44.361Z,48.35
2018-06-22T03:55:11.797Z,51.35
2018-06-22T03:57:39.244Z,48.97
2018-06-22T04:00:06.663Z,51.75
2018-06-22T04:02:34.115Z,51.78
2018-06-22T04:05:01.590Z,48.33
2018-06-22T04:07:29.172Z,47.97
2018-06-22T04:09:56.645Z,46.47
2018-06-22T04:12:24.164Z,44.35
2018-06-22T04:14:51.755Z,48.85
2018-06-22T04:17:19.253Z,52.47
2018-06-22T04:19:46.735Z,51.08
2018-06-22T04:22:14.180Z,50.12
2018-06-22T04:24:41.717Z,50.03
2018-06-22T04:27:09.139Z,50.47
2018-06-22T04:29:36.663Z,50.35
2018-06-22T04:32:04.200Z,49.40
2018-06-22T04:34:31.949Z,51.63
2018-06-22T04:36:59.384Z,52.50
2018-06-22T04:39:26.866Z,52.28
2018-06-22T04:41:54.317Z,55.03
2018-06-22T04:44:21.780Z,53.55
2018-06-22T04:46:49.256Z,53.03
2018-06-22T04:49:16.747Z,58.05
2018-06-22T04:51:44.352Z,54.80
2018-06-22T04:54:11.824Z,55.12
2018-06-22T04:56:39.291Z,55.67
2018-06-22T04:59:06.713Z,61.22
2018-06-22T05:01:34.211Z,147.70
2018-06-22T05:04:01.665Z,55.60
2018-06-22T05:06:29.113Z,60.47
2018-06-22T05:08:56.677Z,54.97
2018-06-22T05:11:24.177Z,60.00
2018-06-22T05:13:51.675Z,58.60
2018-06-22T05:16:19.081Z,53.05
2018-06-22T05:18:46.635Z,55.15
2018-06-22T05:21:14.052Z,53.70
2018-06-22T05:23:41.495Z,53.53
2018-06-22T05:26:08.923Z,53.65
2018-06-22T05:28:37.273Z,50.55
2018-06-22T05:31:04.740Z,56.33
2018-06-22T05:33:32.291Z,54.80
2018-06-22T05:35:59.816Z,56.30
2018-06-22T05:38:27.331Z,65.15
2018-06-22T05:40:54.951Z,52.25
2018-06-22T05:43:22.470Z,57.10
2018-06-22T05:45:49.995Z,54.90
2018-06-22T05:48:17.507Z,52.22
2018-06-22T05:50:45.207Z,53.42
2018-06-22T05:53:12.836Z,53.72
2018-06-22T05:55:40.708Z,54.47
2018-06-22T05:58:08.322Z,53.38
2018-06-22T06:00:35.736Z,55.40
2018-06-22T06:03:03.227Z,54.97
2018-06-22T06:05:30.679Z,56.22
2018-06-22T06:07:58.220Z,53.67
2018-06-22T06:10:25.669Z,57.15
2018-06-22T06:12:53.277Z,53.83
2018-06-22T06:15:20.759Z,56.92
2018-06-22T06:17:48.303Z,58.35
2018-06-22T06:20:15.747Z,58.65
2018-06-22T06:22:43.173Z,57.65
2018-06-22T06:25:10.620Z,56.22
2018-06-22T06:27:38.042Z,57.25
2018-06-22T06:30:05.481Z,56.42
2018-06-22T06:32:33.798Z,58.67
2018-06-22T06:35:01.258Z,14.60
2018-06-22T06:37:28.684Z,9.68
2018-06-22T06:39:56.146Z,5.55
2018-06-22T06:42:23.649Z,4.53
2018-06-22T06:44:51.151Z,5.00
2018-06-22T06:47:18.900Z,5.03
2018-06-22T06:49:46.423Z,4.72
2018-06-22T06:52:13.842Z,6.25
2018-06-22T06:54:41.328Z,16.12
2018-06-22T06:57:08.787Z,6.12
2018-06-22T06:59:37.150Z,7.37
2018-06-22T07:02:04.582Z,5.18
2018-06-22T07:04:32.140Z,6.32
2018-06-22T07:06:59.624Z,5.93
2018-06-22T07:09:27.075Z,8.88
2018-06-22T07:11:54.579Z,5.53
2018-06-22T07:14:22.068Z,14.82
2018-06-22T07:16:49.531Z,12.02
2018-06-22T07:19:17.015Z,5.25
2018-06-22T07:21:44.578Z,11.12
2018-06-22T07:24:12.124Z,3.45
2018-06-22T07:26:39.582Z,8.88
2018-06-22T07:29:07.019Z,6.30
2018-06-22T07:31:34.467Z,10.27
2018-06-22T07:34:01.913Z,3.40
2018-06-22T07:36:29.408Z,7.00
2018-06-22T07:38:56.894Z,11.45
2018-06-22T07:41:24.456Z,8.27
2018-06-22T07:43:52.002Z,6.40
2018-06-22T07:46:19.615Z,10.15
2018-06-22T07:48:47.069Z,9.15
2018-06-22T07:51:14.541Z,5.70
2018-06-22T07:53:42.006Z,8.95
2018-06-22T07:56:09.458Z,5.28
2018-06-22T07:58:36.971Z,9.32
2018-06-22T08:01:04.395Z,10.00
2018-06-22T08:03:31.925Z,7.65
2018-06-22T08:05:59.326Z,5.87
2018-06-22T08:08:27.041Z,4.40
2018-06-22T08:10:54.515Z,4.55
2018-06-22T08:13:23.004Z,5.97
2018-06-22T08:15:50.625Z,8.02
2018-06-22T08:18:18.133Z,7.62
2018-06-22T08:20:45.608Z,8.93
2018-06-22T08:23:13.055Z,12.80
2018-06-22T08:25:40.473Z,9.77
2018-06-22T08:28:07.939Z,9.70
2018-06-22T08:30:35.519Z,7.95
2018-06-22T08:33:03.044Z,7.53
2018-06-22T08:35:30.543Z,5.78
2018-06-22T08:37:57.974Z,8.30
2018-06-22T08:40:25.437Z,8.57
2018-06-22T08:42:52.990Z,7.35
2018-06-22T08:45:20.462Z,6.10
2018-06-22T08:47:47.876Z,4.07
2018-06-22T08:50:15.401Z,4.43
2018-06-22T08:52:42.889Z,6.00
2018-06-22T08:55:10.287Z,9.05
2018-06-22T08:57:37.723Z,10.52
2018-06-22T09:00:05.165Z,6.78
2018-06-22T09:02:32.651Z,10.82
2018-06-22T09:05:00.139Z,10.65
2018-06-22T09:07:27.622Z,4.25
2018-06-22T09:09:55.028Z,9.63
2018-06-22T09:12:22.469Z,9.70
2018-06-22T09:14:49.904Z,3.10
2018-06-22T09:17:17.334Z,7.65
2018-06-22T09:19:44.827Z,12.70
2018-06-22T09:22:12.243Z,8.23
2018-06-22T09:24:39.663Z,6.60
2018-06-22T09:27:07.111Z,7.47
2018-06-22T09:29:34.574Z,7.40
2018-06-22T09:32:02.010Z,4.45
2018-06-22T09:34:29.440Z,6.65
2018-06-22T09:36:56.916Z,9.27
2018-06-22T09:39:24.359Z,5.07
2018-06-22T09:41:51.825Z,9.43
2018-06-22T09:44:19.308Z,10.93
2018-06-22T09:46:46.779Z,10.52
2018-06-22T09:49:14.331Z,4.85
2018-06-22T09:51:41.788Z,6.97
2018-06-22T09:54:09.555Z,4.55
2018-06-22T09:56:37.006Z,6.90
2018-06-22T09:59:04.426Z,5.35
2018-06-22T10:01:31.897Z,6.50
2018-06-22T10:03:59.480Z,6.37
2018-06-22T10:06:26.969Z,6.10
2018-06-22T10:08:54.510Z,4.72
2018-06-22T10:11:22.035Z,4.82
2018-06-22T10:13:49.424Z,16.05
2018-06-22T10:16:16.933Z,3.72
2018-06-22T10:18:44.420Z,5.90
2018-06-22T10:21:11.909Z,5.05
2018-06-22T10:23:39.409Z,8.25
2018-06-22T10:26:06.932Z,4.50
2018-06-22T10:28:34.428Z,9.43
2018-06-22T10:31:01.855Z,8.85
2018-06-22T10:33:29.579Z,8.93
2018-06-22T10:35:57.016Z,15.55
2018-06-22T10:38:25.720Z,4.07
2018-06-22T10:40:53.216Z,6.90
2018-06-22T10:43:20.726Z,6.40
2018-06-22T10:45:48.200Z,9.50
2018-06-22T10:48:15.620Z,9.38
2018-06-22T10:50:43.155Z,6.53
2018-06-22T10:53:10.927Z,8.82
2018-06-22T10:55:38.416Z,4.22
2018-06-22T10:58:05.856Z,8.38
2018-06-22T11:00:33.411Z,7.15
2018-06-22T11:03:00.893Z,9.57
2018-06-22T11:05:28.318Z,18.67
2018-06-22T11:07:55.776Z,9.68
2018-06-22T11:10:23.258Z,7.30
2018-06-22T11:12:50.721Z,9.43
2018-06-22T11:15:18.350Z,6.55
2018-06-22T11:17:45.809Z,8.75
2018-06-22T11:20:13.249Z,8.77
2018-06-22T11:22:40.699Z,13.38
2018-06-22T11:25:08.177Z,4.72
2018-06-22T11:27:35.730Z,3.78
2018-06-22T11:30:03.172Z,5.15
2018-06-22T11:32:30.613Z,6.22
2018-06-22T11:34:58.174Z,7.68
2018-06-22T11:37:25.612Z,10.40
2018-06-22T11:39:53.072Z,6.93
2018-06-22T11:42:20.580Z,4.47
2018-06-22T11:44:48.032Z,18.00
2018-06-22T11:47:15.644Z,5.93
2018-06-22T11:49:43.116Z,6.15
2018-06-22T11:52:10.522Z,7.47
2018-06-22T11:54:38.020Z,9.13
2018-06-22T11:57:05.532Z,3.90
2018-06-22T11:59:32.969Z,3.58
2018-06-22T12:02:00.431Z,4.82
2018-06-22T12:04:27.932Z,4.60
2018-06-22T12:06:55.642Z,4.22
2018-06-22T12:09:23.096Z,4.25
2018-06-22T12:11:50.555Z,4.22
2018-06-22T12:14:18.763Z,4.60
2018-06-22T12:16:46.312Z,4.75
2018-06-22T12:19:14.009Z,4.10
2018-06-22T12:21:41.513Z,3.00
2018-06-22T12:24:08.959Z,3.00
2018-06-22T12:26:36.611Z,3.37
2018-06-22T12:29:04.137Z,6.60
2018-06-22T12:31:31.872Z,6.20
2018-06-22T12:33:59.351Z,4.53
2018-06-22T12:36:26.871Z,5.60
2018-06-22T12:38:54.344Z,4.35
2018-06-22T12:41:21.797Z,6.97
2018-06-22T12:43:49.243Z,3.05
2018-06-22T12:46:16.693Z,8.30
2018-06-22T12:48:44.144Z,5.18
2018-06-22T12:51:11.550Z,3.90
2018-06-22T12:53:39.086Z,4.28
2018-06-22T12:56:06.571Z,4.87
2018-06-22T12:58:33.966Z,4.00
2018-06-22T13:01:01.473Z,4.45
2018-06-22T13:03:28.932Z,3.03
2018-06-22T13:05:57.068Z,4.75
2018-06-22T13:08:24.641Z,7.00
2018-06-22T13:10:52.094Z,5.28
2018-06-22T13:13:19.514Z,3.20
2018-06-22T13:15:46.944Z,4.28
2018-06-22T13:18:14.355Z,5.80
2018-06-22T13:20:41.845Z,5.53
2018-06-22T13:23:09.324Z,3.92
2018-06-22T13:25:36.731Z,3.03
2018-06-22T13:28:04.276Z,3.65
2018-06-22T13:30:31.807Z,6.68
2018-06-22T13:32:59.300Z,3.65
2018-06-22T13:35:27.096Z,6.00
2018-06-22T13:37:54.559Z,14.43
2018-06-22T13:40:21.997Z,6.70
2018-06-22T13:42:49.468Z,7.25
2018-06-22T13:45:16.928Z,9.07
2018-06-22T13:47:44.397Z,4.47
2018-06-22T13:50:11.993Z,3.35
2018-06-22T13:52:39.604Z,8.20
2018-06-22T13:55:07.200Z,4.53
2018-06-22T13:57:34.652Z,6.97
2018-06-22T14:00:02.339Z,2.87
2018-06-22T14:02:29.783Z,6.32
2018-06-22T14:07:50.169Z,5.30
2018-06-22T14:10:17.698Z,3.90
2018-06-22T14:12:45.200Z,6.60
2018-06-22T14:15:12.794Z,3.22
2018-06-22T14:17:40.199Z,6.78
2018-06-22T14:20:07.710Z,4.10
2018-06-22T14:22:35.126Z,6.53
2018-06-22T14:25:02.585Z,4.15
2018-06-22T14:27:30.021Z,5.87
2018-06-22T14:29:57.520Z,4.20
2018-06-22T14:32:24.937Z,3.45
2018-06-22T14:34:52.628Z,5.12
2018-06-22T14:37:20.133Z,9.93
2018-06-22T14:39:47.619Z,7.22
2018-06-22T14:42:15.063Z,4.72
2018-06-22T14:44:42.708Z,4.07
2018-06-22T14:47:10.126Z,4.45
2018-06-22T14:49:37.820Z,3.78
2018-06-22T14:52:05.375Z,4.25
2018-06-22T14:57:43.682Z,5.05
2018-06-22T15:03:10.710Z,4.22
2018-06-22T15:08:32.325Z,4.72
2018-06-22T15:10:59.838Z,3.70
2018-06-22T15:13:27.462Z,4.53
2018-06-22T15:15:55.676Z,4.30
2018-06-22T15:18:23.310Z,3.05
2018-06-22T15:20:50.857Z,3.10
2018-06-22T15:23:18.375Z,3.00
2018-06-22T15:25:45.892Z,3.60
2018-06-22T15:28:13.375Z,3.30
2018-06-22T15:30:40.888Z,4.72
2018-06-22T15:33:08.910Z,3.30
2018-06-22T15:38:46.309Z,3.80
2018-06-22T15:44:20.877Z,4.60
2018-06-22T15:49:46.255Z,4.72
2018-06-22T15:55:06.775Z,4.72
2018-06-22T15:57:34.264Z,4.20
2018-06-22T16:00:01.924Z,4.78
2018-06-22T16:02:29.227Z,4.00
2018-06-22T16:04:56.805Z,4.62
2018-06-22T16:07:24.273Z,3.25
2018-06-22T16:09:51.776Z,4.78
2018-06-22T16:12:19.299Z,5.10
2018-06-22T16:14:46.762Z,6.75
2018-06-22T16:20:27.462Z,6.60
2018-06-22T16:23:11.873Z,4.60
2018-06-22T16:28:31.607Z,4.62
2018-06-22T16:30:59.109Z,4.45
2018-06-22T16:33:26.620Z,4.95
2018-06-22T16:35:54.250Z,7.25
2018-06-22T16:38:21.716Z,3.03
2018-06-22T16:40:49.220Z,6.32
2018-06-22T16:43:17.363Z,4.78
2018-06-22T16:45:44.867Z,3.95
2018-06-22T16:48:12.411Z,3.90
2018-06-22T16:50:40.073Z,4.57
2018-06-22T16:53:07.605Z,3.75
2018-06-22T16:55:35.049Z,6.28
2018-06-22T16:58:02.638Z,5.65
2018-06-22T17:00:30.107Z,4.60
2018-06-22T17:02:57.624Z,5.82
2018-06-22T17:05:25.151Z,11.07
2018-06-22T17:10:59.665Z,3.87
2018-06-22T17:13:42.053Z,4.43
2018-06-22T17:19:02.689Z,4.47
2018-06-22T17:21:30.558Z,3.60
2018-06-22T17:23:58.123Z,6.28
2018-06-22T17:26:25.601Z,6.53
2018-06-22T17:28:53.067Z,7.32
2018-06-22T17:31:20.606Z,4.75
2018-06-22T17:33:48.189Z,9.15
2018-06-22T17:36:15.629Z,3.50
2018-06-22T17:38:43.135Z,3.20
2018-06-22T17:41:10.689Z,2.60
2018-06-22T17:43:38.155Z,4.30
2018-06-22T17:46:05.728Z,4.30
2018-06-22T17:48:33.196Z,3.53
2018-06-22T17:51:00.664Z,3.00
2018-06-22T17:53:28.251Z,7.10
2018-06-22T17:55:55.701Z,5.82
2018-06-22T17:58:23.145Z,3.20
2018-06-22T18:03:53.255Z,5.60
2018-06-22T18:06:36.579Z,7.35
2018-06-22T18:09:04.225Z,4.47
2018-06-22T18:11:37.397Z,4.22
2018-06-22T18:14:04.987Z,9.82
2018-06-22T18:16:32.566Z,8.23
2018-06-22T18:19:00.120Z,4.00
2018-06-22T18:21:27.643Z,7.70
2018-06-22T18:23:55.141Z,7.87
2018-06-22T18:26:22.583Z,4.37
2018-06-22T18:28:50.052Z,3.67
2018-06-22T18:31:17.579Z,7.47
2018-06-22T18:33:45.042Z,3.58
2018-06-22T18:36:12.547Z,6.20
2018-06-22T18:38:39.982Z,6.53
2018-06-22T18:41:07.488Z,4.97
2018-06-22T18:43:35.115Z,3.33
2018-06-22T18:46:02.609Z,6.22
2018-06-22T18:48:30.273Z,5.00
2018-06-22T18:50:57.726Z,5.62
2018-06-22T18:56:33.092Z,5.97
2018-06-22T18:59:06.193Z,4.35
2018-06-22T19:04:26.811Z,6.10
2018-06-22T19:06:54.321Z,3.80
2018-06-22T19:09:21.828Z,4.28
2018-06-22T19:11:49.376Z,4.43
2018-06-22T19:14:16.739Z,8.48
2018-06-22T19:16:45.634Z,5.15
2018-06-22T19:19:13.882Z,5.72
2018-06-22T19:21:41.582Z,5.18
2018-06-22T19:24:09.095Z,4.15
2018-06-22T19:26:36.559Z,5.10
2018-06-22T19:29:04.034Z,2.85
2018-06-22T19:31:31.476Z,6.72
2018-06-22T19:33:58.963Z,3.37
2018-06-22T19:36:26.402Z,4.75
2018-06-22T19:38:53.923Z,5.43
2018-06-22T19:41:21.404Z,6.30
2018-06-22T19:43:48.856Z,3.47
2018-06-22T19:49:25.200Z,4.03
2018-06-22T19:54:47.105Z,6.00
2018-06-22T19:57:14.601Z,4.60
2018-06-22T19:59:42.084Z,8.27
2018-06-22T20:02:09.550Z,14.90
2018-06-22T20:04:37.055Z,5.62
2018-06-22T20:07:04.483Z,6.30
2018-06-22T20:09:31.980Z,6.55
2018-06-22T20:11:59.540Z,5.12
2018-06-22T20:14:27.008Z,3.92
2018-06-22T20:16:54.658Z,3.08
2018-06-22T20:19:22.105Z,4.87
2018-06-22T20:21:50.041Z,4.80
2018-06-22T20:24:17.758Z,4.57
2018-06-22T20:26:46.109Z,3.95
2018-06-22T20:29:13.539Z,3.17
2018-06-22T20:31:41.018Z,3.83
2018-06-22T20:34:08.488Z,3.37
2018-06-22T20:39:44.887Z,5.45
2018-06-22T20:45:14.148Z,3.65
2018-06-22T20:47:41.618Z,5.20
2018-06-22T20:53:02.019Z,6.75
2018-06-22T20:55:29.493Z,2.90
2018-06-22T20:57:56.968Z,7.87
2018-06-22T21:00:24.378Z,7.65
2018-06-22T21:02:51.878Z,3.87
2018-06-22T21:05:19.390Z,5.28
2018-06-22T21:07:46.798Z,5.55
2018-06-22T21:10:14.277Z,7.60
2018-06-22T21:12:41.791Z,10.18
2018-06-22T21:15:09.257Z,5.68
2018-06-22T21:17:36.846Z,4.82
2018-06-22T21:20:04.259Z,5.07
2018-06-22T21:22:31.767Z,4.07
2018-06-22T21:24:59.366Z,5.70
2018-06-22T21:27:26.843Z,3.60
2018-06-22T21:33:08.019Z,5.50
2018-06-22T21:38:44.353Z,6.35
2018-06-22T21:41:11.876Z,6.07
2018-06-22T21:43:39.373Z,2.90
2018-06-22T21:46:06.880Z,5.93
2018-06-22T21:48:34.304Z,4.55
2018-06-22T21:51:01.769Z,6.03
2018-06-22T21:53:29.292Z,3.50
2018-06-22T21:55:56.668Z,4.70
2018-06-22T21:58:24.133Z,5.53
2018-06-22T22:00:51.591Z,4.12
2018-06-22T22:03:18.983Z,3.20
2018-06-22T22:05:46.429Z,9.85
2018-06-22T22:08:13.841Z,4.15
2018-06-22T22:10:41.327Z,5.37
2018-06-22T22:13:08.844Z,3.90
2018-06-22T22:15:36.901Z,5.90
2018-06-22T22:18:04.355Z,4.65
2018-06-22T22:20:31.808Z,4.12
2018-06-22T22:22:59.261Z,4.35
2018-06-22T22:25:26.718Z,5.85
2018-06-22T22:27:54.782Z,3.15
2018-06-22T22:30:22.201Z,6.00
2018-06-22T22:32:50.440Z,4.20
2018-06-22T22:35:17.997Z,8.38
2018-06-22T22:37:45.520Z,3.75
2018-06-22T22:40:12.997Z,4.45
2018-06-22T22:42:40.415Z,7.60
2018-06-22T22:45:07.879Z,5.10
2018-06-22T22:47:35.371Z,6.37
2018-06-22T22:50:02.840Z,3.30
2018-06-22T22:52:30.304Z,5.93
2018-06-22T22:54:57.748Z,4.00
2018-06-22T22:57:25.158Z,3.05
2018-06-22T22:59:52.647Z,7.65
2018-06-22T23:02:20.169Z,3.53
2018-06-22T23:04:47.751Z,5.37
2018-06-22T23:07:15.186Z,6.12
2018-06-22T23:09:42.627Z,4.62
2018-06-22T23:12:10.030Z,4.07
2018-06-22T23:14:37.465Z,2.70
2018-06-22T23:17:04.936Z,4.10
2018-06-22T23:19:32.414Z,3.30
2018-06-22T23:21:59.862Z,6.18
2018-06-22T23:24:29.056Z,4.60
2018-06-22T23:26:56.579Z,4.05
2018-06-22T23:29:24.242Z,7.95
2018-06-22T23:31:51.731Z,3.15
2018-06-22T23:34:19.139Z,3.80
2018-06-22T23:36:46.545Z,3.17
2018-06-22T23:39:14.213Z,2.90
2018-06-22T23:41:41.950Z,6.18
2018-06-22T23:44:09.392Z,3.60
2018-06-22T23:46:36.891Z,7.50
2018-06-22T23:49:04.302Z,3.53
2018-06-22T23:51:31.807Z,6.75
2018-06-22T23:53:59.287Z,5.55
2018-06-22T23:56:26.718Z,3.37
2018-06-22T23:58:54.145Z,8.05
